map of TTU home
TTU - Airport
Location
City:  Tetouan, Tanger-Tétouan, Morocco
Name:Saniat R'mel International Airport
ICAO:GMTN
IATA:TTU

Details
Type:Airport (Aerodrome, Airfield)
Use:Public/Civil, International (customs port of entry)
Latitude:35°35'40"N (35.594444)
Longitude:5°19'12"W (-5.319999)
Elevation:13 ft (4 m)
Variation:1.02°W (WMM2015 magnetic declination)
0.11° annual change
Runways:1
Longest:7546 × 148 ft (2300 × 45 m), paved

Time
Time Zone:UTC+0 (DST+1)
Local Time:

Weather
METAR:GMTN 191000Z 12003KT 070V160 9999 FEW023 SCT100 17/13 Q1010 NOSIG

Related Locations
Nearby:
Farthest:WRE: 12426 mi / 19998 km
Whangarei, NTL, NZ

Find:

   beyond  
but within

Other Information
Maps:
NOTAMs:
Links:
Sources:

  
  • flag of Morocco
  

Sectional Chart

Flight Planning
at skyvector.com

Satellite Image

Google Maps Satellite view

 

Copyright © 2004-2018 Karl L. Swartz. All rights reserved.
The Great Circle Mapper name and logo are trademarks of the Great Circle Mapper.
All other trademarks mentioned herein belong to their respective owners.
Please see credits for attibutions and further copyright information.

  Follow gcmap on Facebook Follow gcmap on Twitter Follow gcmap on Google+ GCmap on LinkedIn

hCard Microformat

Geo Microformat